Terminal Aerodrome Forecast
Issued by NWS Sterling, VA

Current Version | Previous Version | Graphics & Text | Print | Product List | Glossary On
Versions: 1 2 3 4 5 6 7 8 9 10 11 12 13 14 15 16 17 18 19 20 21 22 23 24 25 26 27
000
FTUS41 KLWX 211500 AAB
TAFIAD
TAF AMD
KIAD 211511Z 2115/2218 VRB04KT P6SM FEW040 SCT100
     FM211800 29005KT P6SM SCT040 OVC080
     FM212100 31005KT 5SM -SHRA OVC050
     FM220000 32004KT P6SM OVC050
     FM220500 34006KT P6SM OVC030
     FM221200 33012KT P6SM OVC010
     FM221500 33015G23KT P6SM OVC015=

USA.gov is the U.S. government's official web portal to all federal, state and local government web resources and services.